sensor_id;sensor_type;location;lat;lon;timestamp;P1;durP1;ratioP1;P2;durP2;ratioP2
72569;SDS011;60594;50.204;8.844;2023-08-06T00:01:12;7.78;;;4.95;;
72569;SDS011;60594;50.204;8.844;2023-08-06T00:03:49;8.02;;;5.35;;
72569;SDS011;60594;50.204;8.844;2023-08-06T00:06:16;8.32;;;5.20;;
72569;SDS011;60594;50.204;8.844;2023-08-06T00:08:43;6.40;;;4.57;;
72569;SDS011;60594;50.204;8.844;2023-08-06T00:11:10;7.18;;;5.13;;
72569;SDS011;60594;50.204;8.844;2023-08-06T00:13:39;7.30;;;4.95;;
72569;SDS011;60594;50.204;8.844;2023-08-06T00:16:09;7.35;;;5.57;;
72569;SDS011;60594;50.204;8.844;2023-08-06T00:18:37;7.90;;;4.97;;
72569;SDS011;60594;50.204;8.844;2023-08-06T00:21:04;8.05;;;5.00;;
72569;SDS011;60594;50.204;8.844;2023-08-06T00:23:31;7.45;;;4.88;;
72569;SDS011;60594;50.204;8.844;2023-08-06T00:25:58;7.50;;;5.20;;
72569;SDS011;60594;50.204;8.844;2023-08-06T00:28:25;6.53;;;4.97;;
72569;SDS011;60594;50.204;8.844;2023-08-06T00:30:52;7.40;;;5.03;;
72569;SDS011;60594;50.204;8.844;2023-08-06T00:33:22;9.13;;;5.00;;
72569;SDS011;60594;50.204;8.844;2023-08-06T00:35:49;7.65;;;4.95;;
72569;SDS011;60594;50.204;8.844;2023-08-06T00:38:17;6.82;;;5.13;;
72569;SDS011;60594;50.204;8.844;2023-08-06T00:40:43;7.05;;;4.68;;
72569;SDS011;60594;50.204;8.844;2023-08-06T00:43:11;7.20;;;4.63;;
72569;SDS011;60594;50.204;8.844;2023-08-06T00:45:38;6.50;;;4.93;;
72569;SDS011;60594;50.204;8.844;2023-08-06T00:48:05;7.25;;;4.72;;
72569;SDS011;60594;50.204;8.844;2023-08-06T00:50:33;6.82;;;4.63;;
72569;SDS011;60594;50.204;8.844;2023-08-06T00:53:00;6.63;;;5.15;;
72569;SDS011;60594;50.204;8.844;2023-08-06T00:55:28;6.40;;;4.38;;
72569;SDS011;60594;50.204;8.844;2023-08-06T00:57:55;9.45;;;4.80;;
72569;SDS011;60594;50.204;8.844;2023-08-06T01:00:22;7.13;;;4.50;;
72569;SDS011;60594;50.204;8.844;2023-08-06T01:02:50;10.50;;;4.75;;
72569;SDS011;60594;50.204;8.844;2023-08-06T01:05:18;6.90;;;4.53;;
72569;SDS011;60594;50.204;8.844;2023-08-06T01:07:50;7.00;;;5.03;;
72569;SDS011;60594;50.204;8.844;2023-08-06T01:10:50;6.63;;;4.63;;
72569;SDS011;60594;50.204;8.844;2023-08-06T01:13:40;7.22;;;4.80;;
72569;SDS011;60594;50.204;8.844;2023-08-06T01:16:10;6.68;;;4.10;;
72569;SDS011;60594;50.204;8.844;2023-08-06T01:18:38;7.25;;;4.53;;
72569;SDS011;60594;50.204;8.844;2023-08-06T01:21:06;6.90;;;4.20;;
72569;SDS011;60594;50.204;8.844;2023-08-06T01:23:32;7.57;;;4.30;;
72569;SDS011;60594;50.204;8.844;2023-08-06T01:28:51;6.45;;;4.65;;
72569;SDS011;60594;50.204;8.844;2023-08-06T01:31:21;7.50;;;4.93;;
72569;SDS011;60594;50.204;8.844;2023-08-06T01:33:50;8.90;;;4.70;;
72569;SDS011;60594;50.204;8.844;2023-08-06T01:36:19;6.35;;;4.68;;
72569;SDS011;60594;50.204;8.844;2023-08-06T01:38:47;6.72;;;4.85;;
72569;SDS011;60594;50.204;8.844;2023-08-06T01:41:17;7.30;;;5.18;;
72569;SDS011;60594;50.204;8.844;2023-08-06T01:43:43;7.15;;;4.43;;
72569;SDS011;60594;50.204;8.844;2023-08-06T01:46:10;6.70;;;4.70;;
72569;SDS011;60594;50.204;8.844;2023-08-06T01:48:36;7.43;;;4.70;;
72569;SDS011;60594;50.204;8.844;2023-08-06T01:51:04;6.30;;;4.10;;
72569;SDS011;60594;50.204;8.844;2023-08-06T01:53:32;6.50;;;4.25;;
72569;SDS011;60594;50.204;8.844;2023-08-06T01:55:59;6.45;;;4.43;;
72569;SDS011;60594;50.204;8.844;2023-08-06T01:58:26;5.90;;;3.75;;
72569;SDS011;60594;50.204;8.844;2023-08-06T02:00:53;7.53;;;4.13;;
72569;SDS011;60594;50.204;8.844;2023-08-06T02:03:20;7.60;;;4.88;;
72569;SDS011;60594;50.204;8.844;2023-08-06T02:05:49;6.35;;;4.60;;
72569;SDS011;60594;50.204;8.844;2023-08-06T02:08:15;7.78;;;4.72;;
72569;SDS011;60594;50.204;8.844;2023-08-06T02:10:42;6.30;;;4.40;;
72569;SDS011;60594;50.204;8.844;2023-08-06T02:13:09;7.32;;;4.47;;
72569;SDS011;60594;50.204;8.844;2023-08-06T02:15:41;6.05;;;4.30;;
72569;SDS011;60594;50.204;8.844;2023-08-06T02:18:08;8.00;;;4.75;;
72569;SDS011;60594;50.204;8.844;2023-08-06T02:20:35;7.30;;;4.00;;
72569;SDS011;60594;50.204;8.844;2023-08-06T02:23:02;6.72;;;4.57;;
72569;SDS011;60594;50.204;8.844;2023-08-06T02:25:29;7.00;;;4.72;;
72569;SDS011;60594;50.204;8.844;2023-08-06T02:27:55;8.15;;;4.68;;
72569;SDS011;60594;50.204;8.844;2023-08-06T02:30:22;6.97;;;3.97;;
72569;SDS011;60594;50.204;8.844;2023-08-06T02:32:49;6.35;;;4.10;;
72569;SDS011;60594;50.204;8.844;2023-08-06T02:35:15;8.23;;;4.43;;
72569;SDS011;60594;50.204;8.844;2023-08-06T02:37:42;7.15;;;4.90;;
72569;SDS011;60594;50.204;8.844;2023-08-06T02:40:10;8.48;;;4.78;;
72569;SDS011;60594;50.204;8.844;2023-08-06T02:42:36;8.00;;;4.47;;
72569;SDS011;60594;50.204;8.844;2023-08-06T02:45:04;6.18;;;4.43;;
72569;SDS011;60594;50.204;8.844;2023-08-06T02:47:31;6.65;;;4.20;;
72569;SDS011;60594;50.204;8.844;2023-08-06T02:49:58;6.45;;;4.20;;
72569;SDS011;60594;50.204;8.844;2023-08-06T02:52:25;8.05;;;3.95;;
72569;SDS011;60594;50.204;8.844;2023-08-06T02:54:52;7.28;;;4.18;;
72569;SDS011;60594;50.204;8.844;2023-08-06T02:57:19;6.18;;;4.35;;
72569;SDS011;60594;50.204;8.844;2023-08-06T02:59:48;8.10;;;4.38;;
72569;SDS011;60594;50.204;8.844;2023-08-06T03:02:19;6.97;;;4.38;;
72569;SDS011;60594;50.204;8.844;2023-08-06T03:04:57;6.20;;;3.75;;
72569;SDS011;60594;50.204;8.844;2023-08-06T03:07:27;5.18;;;3.50;;
72569;SDS011;60594;50.204;8.844;2023-08-06T03:09:59;5.22;;;3.67;;
72569;SDS011;60594;50.204;8.844;2023-08-06T03:12:28;6.40;;;3.50;;
72569;SDS011;60594;50.204;8.844;2023-08-06T03:14:57;6.53;;;3.70;;
72569;SDS011;60594;50.204;8.844;2023-08-06T03:17:25;7.40;;;4.03;;
72569;SDS011;60594;50.204;8.844;2023-08-06T03:19:52;5.97;;;3.22;;
72569;SDS011;60594;50.204;8.844;2023-08-06T03:22:19;5.60;;;3.78;;
72569;SDS011;60594;50.204;8.844;2023-08-06T03:24:46;5.88;;;4.22;;
72569;SDS011;60594;50.204;8.844;2023-08-06T03:27:13;6.50;;;3.70;;
72569;SDS011;60594;50.204;8.844;2023-08-06T03:29:42;6.75;;;4.15;;
72569;SDS011;60594;50.204;8.844;2023-08-06T03:32:08;6.30;;;4.28;;
72569;SDS011;60594;50.204;8.844;2023-08-06T03:34:36;6.03;;;3.83;;
72569;SDS011;60594;50.204;8.844;2023-08-06T03:37:03;7.15;;;3.70;;
72569;SDS011;60594;50.204;8.844;2023-08-06T03:39:30;7.82;;;3.70;;
72569;SDS011;60594;50.204;8.844;2023-08-06T03:41:57;9.52;;;4.03;;
72569;SDS011;60594;50.204;8.844;2023-08-06T03:44:25;6.35;;;3.00;;
72569;SDS011;60594;50.204;8.844;2023-08-06T03:46:53;5.13;;;3.35;;
72569;SDS011;60594;50.204;8.844;2023-08-06T03:49:20;5.43;;;2.70;;
72569;SDS011;60594;50.204;8.844;2023-08-06T03:51:47;5.85;;;3.50;;
72569;SDS011;60594;50.204;8.844;2023-08-06T03:54:14;5.25;;;3.25;;
72569;SDS011;60594;50.204;8.844;2023-08-06T03:56:40;5.60;;;2.67;;
72569;SDS011;60594;50.204;8.844;2023-08-06T03:59:08;6.60;;;3.08;;
72569;SDS011;60594;50.204;8.844;2023-08-06T04:01:35;7.45;;;3.50;;
72569;SDS011;60594;50.204;8.844;2023-08-06T04:04:03;6.15;;;3.22;;
72569;SDS011;60594;50.204;8.844;2023-08-06T04:06:30;7.28;;;3.50;;
72569;SDS011;60594;50.204;8.844;2023-08-06T04:08:57;6.32;;;3.75;;
72569;SDS011;60594;50.204;8.844;2023-08-06T04:11:24;8.15;;;3.30;;
72569;SDS011;60594;50.204;8.844;2023-08-06T04:13:51;6.47;;;3.42;;
72569;SDS011;60594;50.204;8.844;2023-08-06T04:16:17;7.13;;;3.55;;
72569;SDS011;60594;50.204;8.844;2023-08-06T04:18:44;6.57;;;3.83;;
72569;SDS011;60594;50.204;8.844;2023-08-06T04:21:13;7.03;;;4.13;;
72569;SDS011;60594;50.204;8.844;2023-08-06T04:23:40;6.28;;;3.45;;
72569;SDS011;60594;50.204;8.844;2023-08-06T04:26:08;7.28;;;2.92;;
72569;SDS011;60594;50.204;8.844;2023-08-06T04:28:37;5.07;;;3.15;;
72569;SDS011;60594;50.204;8.844;2023-08-06T04:31:03;5.97;;;3.30;;
72569;SDS011;60594;50.204;8.844;2023-08-06T04:33:33;7.05;;;2.92;;
72569;SDS011;60594;50.204;8.844;2023-08-06T04:36:05;7.40;;;3.58;;
72569;SDS011;60594;50.204;8.844;2023-08-06T04:38:34;5.07;;;2.95;;
72569;SDS011;60594;50.204;8.844;2023-08-06T04:41:02;5.53;;;2.58;;
72569;SDS011;60594;50.204;8.844;2023-08-06T04:43:34;6.50;;;3.20;;
72569;SDS011;60594;50.204;8.844;2023-08-06T04:46:00;4.03;;;2.40;;
72569;SDS011;60594;50.204;8.844;2023-08-06T04:48:28;5.63;;;2.90;;
72569;SDS011;60594;50.204;8.844;2023-08-06T04:50:54;6.28;;;2.85;;
72569;SDS011;60594;50.204;8.844;2023-08-06T04:53:21;5.20;;;2.63;;
72569;SDS011;60594;50.204;8.844;2023-08-06T04:55:48;5.45;;;2.80;;
72569;SDS011;60594;50.204;8.844;2023-08-06T04:58:14;5.03;;;2.63;;
72569;SDS011;60594;50.204;8.844;2023-08-06T05:00:41;4.80;;;2.10;;
72569;SDS011;60594;50.204;8.844;2023-08-06T05:03:08;4.82;;;2.20;;
72569;SDS011;60594;50.204;8.844;2023-08-06T05:05:35;4.95;;;2.80;;
72569;SDS011;60594;50.204;8.844;2023-08-06T05:08:02;4.97;;;2.25;;
72569;SDS011;60594;50.204;8.844;2023-08-06T05:10:28;4.55;;;2.22;;
72569;SDS011;60594;50.204;8.844;2023-08-06T05:12:55;5.15;;;2.53;;
72569;SDS011;60594;50.204;8.844;2023-08-06T05:15:21;4.15;;;1.80;;
72569;SDS011;60594;50.204;8.844;2023-08-06T05:17:48;6.10;;;2.40;;
72569;SDS011;60594;50.204;8.844;2023-08-06T05:20:15;5.00;;;2.38;;
72569;SDS011;60594;50.204;8.844;2023-08-06T05:22:43;5.53;;;2.72;;
72569;SDS011;60594;50.204;8.844;2023-08-06T05:25:12;5.15;;;2.50;;
72569;SDS011;60594;50.204;8.844;2023-08-06T05:27:40;5.10;;;2.30;;
72569;SDS011;60594;50.204;8.844;2023-08-06T05:30:06;5.10;;;2.10;;
72569;SDS011;60594;50.204;8.844;2023-08-06T05:32:33;5.95;;;2.08;;
72569;SDS011;60594;50.204;8.844;2023-08-06T05:35:00;6.22;;;2.45;;
72569;SDS011;60594;50.204;8.844;2023-08-06T05:37:27;5.47;;;2.38;;
72569;SDS011;60594;50.204;8.844;2023-08-06T05:39:53;3.60;;;2.15;;
72569;SDS011;60594;50.204;8.844;2023-08-06T05:42:23;6.10;;;2.47;;
72569;SDS011;60594;50.204;8.844;2023-08-06T05:44:50;4.10;;;2.55;;
72569;SDS011;60594;50.204;8.844;2023-08-06T05:47:17;7.63;;;2.65;;
72569;SDS011;60594;50.204;8.844;2023-08-06T05:49:43;4.93;;;2.50;;
72569;SDS011;60594;50.204;8.844;2023-08-06T05:52:10;3.65;;;2.10;;
72569;SDS011;60594;50.204;8.844;2023-08-06T05:54:36;4.03;;;2.20;;
72569;SDS011;60594;50.204;8.844;2023-08-06T05:57:04;4.57;;;2.30;;
72569;SDS011;60594;50.204;8.844;2023-08-06T05:59:31;5.38;;;2.33;;
72569;SDS011;60594;50.204;8.844;2023-08-06T06:01:59;4.20;;;2.40;;
72569;SDS011;60594;50.204;8.844;2023-08-06T06:04:25;5.78;;;2.63;;
72569;SDS011;60594;50.204;8.844;2023-08-06T06:06:52;4.00;;;2.50;;
72569;SDS011;60594;50.204;8.844;2023-08-06T06:09:18;5.15;;;2.40;;
72569;SDS011;60594;50.204;8.844;2023-08-06T06:11:45;5.28;;;2.50;;
72569;SDS011;60594;50.204;8.844;2023-08-06T06:14:12;5.25;;;2.25;;
72569;SDS011;60594;50.204;8.844;2023-08-06T06:16:40;4.32;;;2.30;;
72569;SDS011;60594;50.204;8.844;2023-08-06T06:19:07;4.50;;;2.45;;
72569;SDS011;60594;50.204;8.844;2023-08-06T06:21:33;4.53;;;2.20;;
72569;SDS011;60594;50.204;8.844;2023-08-06T06:24:00;6.20;;;2.35;;
72569;SDS011;60594;50.204;8.844;2023-08-06T06:26:27;4.57;;;2.58;;
72569;SDS011;60594;50.204;8.844;2023-08-06T06:28:54;4.35;;;2.30;;
72569;SDS011;60594;50.204;8.844;2023-08-06T06:31:22;4.47;;;2.38;;
72569;SDS011;60594;50.204;8.844;2023-08-06T06:33:48;4.15;;;2.38;;
72569;SDS011;60594;50.204;8.844;2023-08-06T06:36:15;3.88;;;1.88;;
72569;SDS011;60594;50.204;8.844;2023-08-06T06:38:41;4.63;;;1.85;;
72569;SDS011;60594;50.204;8.844;2023-08-06T06:41:08;5.32;;;2.25;;
72569;SDS011;60594;50.204;8.844;2023-08-06T06:43:36;4.57;;;1.80;;
72569;SDS011;60594;50.204;8.844;2023-08-06T06:48:32;3.10;;;1.38;;
72569;SDS011;60594;50.204;8.844;2023-08-06T06:53:26;3.22;;;1.60;;
72569;SDS011;60594;50.204;8.844;2023-08-06T06:56:02;3.67;;;1.40;;
72569;SDS011;60594;50.204;8.844;2023-08-06T06:58:31;2.92;;;1.10;;
72569;SDS011;60594;50.204;8.844;2023-08-06T07:00:59;3.00;;;1.50;;
72569;SDS011;60594;50.204;8.844;2023-08-06T07:03:25;3.13;;;1.45;;
72569;SDS011;60594;50.204;8.844;2023-08-06T07:05:56;3.08;;;1.60;;
72569;SDS011;60594;50.204;8.844;2023-08-06T07:08:25;3.65;;;1.10;;
72569;SDS011;60594;50.204;8.844;2023-08-06T07:11:05;3.13;;;1.40;;
72569;SDS011;60594;50.204;8.844;2023-08-06T07:13:33;3.15;;;1.35;;
72569;SDS011;60594;50.204;8.844;2023-08-06T07:16:01;3.13;;;1.40;;
72569;SDS011;60594;50.204;8.844;2023-08-06T07:18:28;4.03;;;1.73;;
72569;SDS011;60594;50.204;8.844;2023-08-06T07:20:55;4.55;;;1.73;;
72569;SDS011;60594;50.204;8.844;2023-08-06T07:23:23;3.50;;;1.85;;
72569;SDS011;60594;50.204;8.844;2023-08-06T07:25:51;3.65;;;1.88;;
72569;SDS011;60594;50.204;8.844;2023-08-06T07:28:19;3.55;;;1.75;;
72569;SDS011;60594;50.204;8.844;2023-08-06T07:30:46;3.10;;;1.65;;
72569;SDS011;60594;50.204;8.844;2023-08-06T07:33:13;3.03;;;1.70;;
72569;SDS011;60594;50.204;8.844;2023-08-06T07:35:40;3.60;;;2.03;;
72569;SDS011;60594;50.204;8.844;2023-08-06T07:38:07;3.88;;;1.90;;
72569;SDS011;60594;50.204;8.844;2023-08-06T07:40:35;3.80;;;2.10;;
72569;SDS011;60594;50.204;8.844;2023-08-06T07:43:03;3.90;;;1.83;;
72569;SDS011;60594;50.204;8.844;2023-08-06T07:45:36;3.78;;;1.80;;
72569;SDS011;60594;50.204;8.844;2023-08-06T07:48:03;4.35;;;2.28;;
72569;SDS011;60594;50.204;8.844;2023-08-06T07:50:31;4.93;;;1.70;;
72569;SDS011;60594;50.204;8.844;2023-08-06T07:52:58;3.25;;;1.70;;
72569;SDS011;60594;50.204;8.844;2023-08-06T07:55:25;4.10;;;1.80;;
72569;SDS011;60594;50.204;8.844;2023-08-06T07:57:52;3.80;;;1.48;;
72569;SDS011;60594;50.204;8.844;2023-08-06T08:00:20;2.92;;;1.40;;
72569;SDS011;60594;50.204;8.844;2023-08-06T08:02:46;2.60;;;1.42;;
72569;SDS011;60594;50.204;8.844;2023-08-06T08:05:14;2.70;;;1.35;;
72569;SDS011;60594;50.204;8.844;2023-08-06T08:07:42;2.85;;;1.30;;
72569;SDS011;60594;50.204;8.844;2023-08-06T08:10:10;2.63;;;1.40;;
72569;SDS011;60594;50.204;8.844;2023-08-06T08:12:37;2.58;;;0.90;;
72569;SDS011;60594;50.204;8.844;2023-08-06T08:15:04;3.75;;;1.75;;
72569;SDS011;60594;50.204;8.844;2023-08-06T08:17:31;2.78;;;1.50;;
72569;SDS011;60594;50.204;8.844;2023-08-06T08:19:59;3.13;;;1.60;;
72569;SDS011;60594;50.204;8.844;2023-08-06T08:22:25;3.20;;;1.60;;
72569;SDS011;60594;50.204;8.844;2023-08-06T08:24:52;3.42;;;1.40;;
72569;SDS011;60594;50.204;8.844;2023-08-06T08:27:19;3.08;;;1.30;;
72569;SDS011;60594;50.204;8.844;2023-08-06T08:29:46;3.40;;;1.70;;
72569;SDS011;60594;50.204;8.844;2023-08-06T08:32:12;3.22;;;1.70;;
72569;SDS011;60594;50.204;8.844;2023-08-06T08:34:39;3.53;;;1.58;;
72569;SDS011;60594;50.204;8.844;2023-08-06T08:37:06;4.65;;;1.67;;
72569;SDS011;60594;50.204;8.844;2023-08-06T08:39:32;2.20;;;1.30;;
72569;SDS011;60594;50.204;8.844;2023-08-06T08:41:59;3.03;;;1.30;;
72569;SDS011;60594;50.204;8.844;2023-08-06T08:44:25;3.88;;;1.30;;
72569;SDS011;60594;50.204;8.844;2023-08-06T08:46:54;2.95;;;1.70;;
72569;SDS011;60594;50.204;8.844;2023-08-06T08:49:21;3.20;;;1.95;;
72569;SDS011;60594;50.204;8.844;2023-08-06T08:51:49;3.78;;;1.70;;
72569;SDS011;60594;50.204;8.844;2023-08-06T08:54:19;4.00;;;1.70;;
72569;SDS011;60594;50.204;8.844;2023-08-06T08:56:48;4.03;;;1.67;;
72569;SDS011;60594;50.204;8.844;2023-08-06T08:59:16;4.35;;;1.75;;
72569;SDS011;60594;50.204;8.844;2023-08-06T09:01:42;4.38;;;1.73;;
72569;SDS011;60594;50.204;8.844;2023-08-06T09:04:12;2.53;;;1.40;;
72569;SDS011;60594;50.204;8.844;2023-08-06T09:06:39;6.25;;;1.88;;
72569;SDS011;60594;50.204;8.844;2023-08-06T09:09:10;4.28;;;2.75;;
72569;SDS011;60594;50.204;8.844;2023-08-06T09:11:41;7.90;;;4.47;;
72569;SDS011;60594;50.204;8.844;2023-08-06T09:14:10;3.50;;;1.70;;
72569;SDS011;60594;50.204;8.844;2023-08-06T09:16:38;4.05;;;1.92;;
72569;SDS011;60594;50.204;8.844;2023-08-06T09:19:08;3.25;;;1.65;;
72569;SDS011;60594;50.204;8.844;2023-08-06T09:21:39;3.03;;;1.80;;
72569;SDS011;60594;50.204;8.844;2023-08-06T09:24:10;4.15;;;1.50;;
72569;SDS011;60594;50.204;8.844;2023-08-06T09:26:38;3.00;;;1.60;;
72569;SDS011;60594;50.204;8.844;2023-08-06T09:29:06;2.83;;;1.60;;
72569;SDS011;60594;50.204;8.844;2023-08-06T09:31:40;3.63;;;1.75;;
72569;SDS011;60594;50.204;8.844;2023-08-06T09:34:26;3.80;;;1.55;;
72569;SDS011;60594;50.204;8.844;2023-08-06T09:36:53;4.22;;;1.55;;
72569;SDS011;60594;50.204;8.844;2023-08-06T09:39:26;5.97;;;2.85;;
72569;SDS011;60594;50.204;8.844;2023-08-06T09:41:55;4.75;;;1.40;;
72569;SDS011;60594;50.204;8.844;2023-08-06T09:44:24;2.70;;;1.52;;
72569;SDS011;60594;50.204;8.844;2023-08-06T09:46:55;2.58;;;1.27;;
72569;SDS011;60594;50.204;8.844;2023-08-06T09:49:45;2.65;;;1.27;;
72569;SDS011;60594;50.204;8.844;2023-08-06T09:52:12;3.00;;;1.20;;
72569;SDS011;60594;50.204;8.844;2023-08-06T09:54:40;1.98;;;1.15;;
72569;SDS011;60594;50.204;8.844;2023-08-06T09:57:06;3.60;;;1.60;;
72569;SDS011;60594;50.204;8.844;2023-08-06T09:59:35;2.15;;;1.10;;
72569;SDS011;60594;50.204;8.844;2023-08-06T10:04:34;3.00;;;1.50;;
72569;SDS011;60594;50.204;8.844;2023-08-06T10:07:00;5.70;;;2.40;;
72569;SDS011;60594;50.204;8.844;2023-08-06T10:09:27;5.05;;;1.83;;
72569;SDS011;60594;50.204;8.844;2023-08-06T10:11:54;3.53;;;1.45;;
72569;SDS011;60594;50.204;8.844;2023-08-06T10:14:33;3.42;;;1.63;;
72569;SDS011;60594;50.204;8.844;2023-08-06T10:17:03;2.92;;;1.35;;
72569;SDS011;60594;50.204;8.844;2023-08-06T10:19:30;4.70;;;2.50;;
72569;SDS011;60594;50.204;8.844;2023-08-06T10:27:35;3.10;;;1.10;;
72569;SDS011;60594;50.204;8.844;2023-08-06T10:32:53;7.53;;;4.32;;
72569;SDS011;60594;50.204;8.844;2023-08-06T10:38:20;3.00;;;1.20;;
72569;SDS011;60594;50.204;8.844;2023-08-06T10:40:49;2.25;;;1.02;;
72569;SDS011;60594;50.204;8.844;2023-08-06T10:43:25;2.83;;;1.15;;
72569;SDS011;60594;50.204;8.844;2023-08-06T10:46:00;2.53;;;1.15;;
72569;SDS011;60594;50.204;8.844;2023-08-06T10:48:33;4.25;;;1.30;;
72569;SDS011;60594;50.204;8.844;2023-08-06T10:51:01;3.20;;;1.27;;
72569;SDS011;60594;50.204;8.844;2023-08-06T10:53:28;2.53;;;1.15;;
72569;SDS011;60594;50.204;8.844;2023-08-06T10:55:56;1.73;;;1.00;;
72569;SDS011;60594;50.204;8.844;2023-08-06T10:58:22;2.50;;;1.25;;
72569;SDS011;60594;50.204;8.844;2023-08-06T11:00:49;2.35;;;1.05;;
72569;SDS011;60594;50.204;8.844;2023-08-06T11:03:15;2.05;;;1.15;;
72569;SDS011;60594;50.204;8.844;2023-08-06T11:08:25;2.22;;;1.13;;
72569;SDS011;60594;50.204;8.844;2023-08-06T11:10:53;1.95;;;1.10;;
72569;SDS011;60594;50.204;8.844;2023-08-06T11:13:20;2.13;;;1.10;;
72569;SDS011;60594;50.204;8.844;2023-08-06T11:15:47;2.10;;;0.80;;
72569;SDS011;60594;50.204;8.844;2023-08-06T11:18:13;1.98;;;1.10;;
72569;SDS011;60594;50.204;8.844;2023-08-06T11:20:40;2.47;;;1.10;;
72569;SDS011;60594;50.204;8.844;2023-08-06T11:23:09;2.15;;;1.00;;
72569;SDS011;60594;50.204;8.844;2023-08-06T11:25:36;2.65;;;1.00;;
72569;SDS011;60594;50.204;8.844;2023-08-06T11:28:03;2.10;;;0.95;;
72569;SDS011;60594;50.204;8.844;2023-08-06T11:30:30;1.52;;;0.68;;
72569;SDS011;60594;50.204;8.844;2023-08-06T11:32:57;0.60;;;0.40;;
72569;SDS011;60594;50.204;8.844;2023-08-06T11:35:23;1.83;;;0.80;;
72569;SDS011;60594;50.204;8.844;2023-08-06T11:37:50;1.38;;;0.80;;
72569;SDS011;60594;50.204;8.844;2023-08-06T11:40:16;2.35;;;0.95;;
72569;SDS011;60594;50.204;8.844;2023-08-06T11:42:46;1.02;;;0.70;;
72569;SDS011;60594;50.204;8.844;2023-08-06T11:45:13;1.17;;;0.80;;
72569;SDS011;60594;50.204;8.844;2023-08-06T11:47:39;2.78;;;0.95;;
72569;SDS011;60594;50.204;8.844;2023-08-06T11:50:07;1.70;;;0.90;;
72569;SDS011;60594;50.204;8.844;2023-08-06T11:52:33;1.50;;;0.95;;
72569;SDS011;60594;50.204;8.844;2023-08-06T11:55:04;1.95;;;0.90;;
72569;SDS011;60594;50.204;8.844;2023-08-06T11:57:37;2.03;;;1.08;;
72569;SDS011;60594;50.204;8.844;2023-08-06T12:00:09;1.63;;;1.02;;
72569;SDS011;60594;50.204;8.844;2023-08-06T12:02:44;1.20;;;0.90;;
72569;SDS011;60594;50.204;8.844;2023-08-06T12:10:09;2.08;;;0.80;;
72569;SDS011;60594;50.204;8.844;2023-08-06T12:12:35;1.38;;;0.77;;
72569;SDS011;60594;50.204;8.844;2023-08-06T12:15:03;1.42;;;0.60;;
72569;SDS011;60594;50.204;8.844;2023-08-06T12:17:31;1.08;;;0.82;;
72569;SDS011;60594;50.204;8.844;2023-08-06T12:19:58;1.42;;;0.85;;
72569;SDS011;60594;50.204;8.844;2023-08-06T12:22:24;2.28;;;0.90;;
72569;SDS011;60594;50.204;8.844;2023-08-06T12:24:51;1.38;;;1.13;;
72569;SDS011;60594;50.204;8.844;2023-08-06T12:27:17;2.20;;;1.20;;
72569;SDS011;60594;50.204;8.844;2023-08-06T12:29:45;1.90;;;0.80;;
72569;SDS011;60594;50.204;8.844;2023-08-06T12:32:14;1.50;;;1.20;;
72569;SDS011;60594;50.204;8.844;2023-08-06T12:34:42;1.25;;;0.80;;
72569;SDS011;60594;50.204;8.844;2023-08-06T12:37:08;0.80;;;0.30;;
72569;SDS011;60594;50.204;8.844;2023-08-06T12:39:36;2.85;;;0.80;;
72569;SDS011;60594;50.204;8.844;2023-08-06T12:42:04;1.35;;;0.85;;
72569;SDS011;60594;50.204;8.844;2023-08-06T12:44:31;1.67;;;0.73;;
72569;SDS011;60594;50.204;8.844;2023-08-06T12:46:58;2.30;;;1.15;;
72569;SDS011;60594;50.204;8.844;2023-08-06T12:49:25;1.60;;;0.50;;
72569;SDS011;60594;50.204;8.844;2023-08-06T12:51:52;2.75;;;1.08;;
72569;SDS011;60594;50.204;8.844;2023-08-06T12:54:20;2.40;;;1.10;;
72569;SDS011;60594;50.204;8.844;2023-08-06T12:56:47;1.85;;;1.00;;
72569;SDS011;60594;50.204;8.844;2023-08-06T12:59:15;2.72;;;0.90;;
72569;SDS011;60594;50.204;8.844;2023-08-06T13:01:42;1.33;;;0.50;;
72569;SDS011;60594;50.204;8.844;2023-08-06T13:04:10;1.33;;;0.77;;
72569;SDS011;60594;50.204;8.844;2023-08-06T13:06:37;2.03;;;0.90;;
72569;SDS011;60594;50.204;8.844;2023-08-06T13:09:09;2.00;;;1.10;;
72569;SDS011;60594;50.204;8.844;2023-08-06T13:11:36;1.60;;;0.80;;
72569;SDS011;60594;50.204;8.844;2023-08-06T13:14:11;1.85;;;0.95;;
72569;SDS011;60594;50.204;8.844;2023-08-06T13:16:39;2.20;;;0.90;;
72569;SDS011;60594;50.204;8.844;2023-08-06T13:19:07;2.03;;;0.85;;
72569;SDS011;60594;50.204;8.844;2023-08-06T13:24:10;1.77;;;1.10;;
72569;SDS011;60594;50.204;8.844;2023-08-06T13:26:37;1.52;;;0.90;;
72569;SDS011;60594;50.204;8.844;2023-08-06T13:29:03;2.55;;;1.00;;
72569;SDS011;60594;50.204;8.844;2023-08-06T13:31:30;1.02;;;0.70;;
72569;SDS011;60594;50.204;8.844;2023-08-06T13:33:56;1.60;;;1.00;;
72569;SDS011;60594;50.204;8.844;2023-08-06T13:36:24;1.35;;;0.77;;
72569;SDS011;60594;50.204;8.844;2023-08-06T13:41:18;1.83;;;1.00;;
72569;SDS011;60594;50.204;8.844;2023-08-06T13:43:45;2.28;;;1.20;;
72569;SDS011;60594;50.204;8.844;2023-08-06T13:46:12;1.30;;;1.00;;
72569;SDS011;60594;50.204;8.844;2023-08-06T13:48:42;1.80;;;0.90;;
72569;SDS011;60594;50.204;8.844;2023-08-06T13:51:10;2.35;;;0.88;;
72569;SDS011;60594;50.204;8.844;2023-08-06T13:53:38;1.23;;;0.65;;
72569;SDS011;60594;50.204;8.844;2023-08-06T13:56:05;1.20;;;0.90;;
72569;SDS011;60594;50.204;8.844;2023-08-06T13:58:32;1.92;;;1.00;;
72569;SDS011;60594;50.204;8.844;2023-08-06T14:00:59;2.13;;;0.85;;
72569;SDS011;60594;50.204;8.844;2023-08-06T14:03:26;2.03;;;0.63;;
72569;SDS011;60594;50.204;8.844;2023-08-06T14:05:52;1.15;;;0.63;;
72569;SDS011;60594;50.204;8.844;2023-08-06T14:08:22;2.50;;;1.35;;
72569;SDS011;60594;50.204;8.844;2023-08-06T14:10:49;1.55;;;1.00;;
72569;SDS011;60594;50.204;8.844;2023-08-06T14:13:16;2.22;;;0.95;;
72569;SDS011;60594;50.204;8.844;2023-08-06T14:15:43;2.75;;;1.17;;
72569;SDS011;60594;50.204;8.844;2023-08-06T14:18:13;3.35;;;1.00;;
72569;SDS011;60594;50.204;8.844;2023-08-06T14:20:43;2.45;;;1.20;;
72569;SDS011;60594;50.204;8.844;2023-08-06T14:23:11;2.50;;;1.30;;
72569;SDS011;60594;50.204;8.844;2023-08-06T14:25:37;1.80;;;1.00;;
72569;SDS011;60594;50.204;8.844;2023-08-06T14:28:05;2.22;;;0.95;;
72569;SDS011;60594;50.204;8.844;2023-08-06T14:30:32;2.67;;;1.15;;
72569;SDS011;60594;50.204;8.844;2023-08-06T14:32:59;5.95;;;1.25;;
72569;SDS011;60594;50.204;8.844;2023-08-06T14:35:29;1.85;;;1.15;;
72569;SDS011;60594;50.204;8.844;2023-08-06T14:37:55;2.28;;;1.20;;
72569;SDS011;60594;50.204;8.844;2023-08-06T14:40:22;2.97;;;1.17;;
72569;SDS011;60594;50.204;8.844;2023-08-06T14:42:48;1.80;;;1.10;;
72569;SDS011;60594;50.204;8.844;2023-08-06T14:45:15;3.15;;;1.50;;
72569;SDS011;60594;50.204;8.844;2023-08-06T14:47:41;2.60;;;1.20;;
72569;SDS011;60594;50.204;8.844;2023-08-06T14:50:08;2.78;;;1.10;;
72569;SDS011;60594;50.204;8.844;2023-08-06T14:52:35;2.50;;;1.17;;
72569;SDS011;60594;50.204;8.844;2023-08-06T14:55:02;1.83;;;0.88;;
72569;SDS011;60594;50.204;8.844;2023-08-06T14:57:30;1.98;;;1.15;;
72569;SDS011;60594;50.204;8.844;2023-08-06T14:59:57;2.25;;;0.95;;
72569;SDS011;60594;50.204;8.844;2023-08-06T15:02:25;1.95;;;1.05;;
72569;SDS011;60594;50.204;8.844;2023-08-06T15:04:52;1.60;;;0.70;;
72569;SDS011;60594;50.204;8.844;2023-08-06T15:07:18;2.25;;;1.30;;
72569;SDS011;60594;50.204;8.844;2023-08-06T15:09:45;2.22;;;1.10;;
72569;SDS011;60594;50.204;8.844;2023-08-06T15:12:11;1.92;;;1.00;;
72569;SDS011;60594;50.204;8.844;2023-08-06T15:14:38;2.15;;;1.00;;
72569;SDS011;60594;50.204;8.844;2023-08-06T15:17:05;2.67;;;1.10;;
72569;SDS011;60594;50.204;8.844;2023-08-06T15:19:31;1.35;;;0.75;;
72569;SDS011;60594;50.204;8.844;2023-08-06T15:21:58;1.50;;;0.80;;
72569;SDS011;60594;50.204;8.844;2023-08-06T15:24:24;1.77;;;1.00;;
72569;SDS011;60594;50.204;8.844;2023-08-06T15:26:51;2.92;;;0.93;;